RBL weather

Red Bluff Municipal Airport
Red Bluff, California, United States

Public forecast

Using degrees Fahrenheit for public forecast. Weather courtesy of forecast.io.

Current aviation weather report (METAR) for Red Bluff Municipal Airport

Retrieved 2020/02/22 21:54 UTC (18 minutes ago):

KRBL 222154Z AUTO 14004KT 10SM CLR 22/00 A2995 RMK AO2 SLP138 T02220000

Aviation forecast (TAF) for Red Bluff Municipal Airport

Retrieved 2020/02/22 18:22 UTC (4 hours ago):

TAF KRBL 221720Z 2218/2318 34007KT P6SM SKC